Albion, Indiana
Current Conditions -  °F | °C
As of 1:35 PM on Saturday 20 Dec 2014 (Local Time) from KGWB Reporting Station
Scattered Clouds Scattered Clouds  
Wind Chill:   Ceiling: Unl
Heat Index:   Visibility: 7mi
Dew Point: -3°   Wind: 3mph
Humidity: 80%   Direction: 260°W
Pressure: 30.25"   Gusts: NA
Location:  41.4°N, 85.42°W
Report Text: KGWB 201835Z AUTO 26003KT 7SM SCT015 SCT036 00/M03 A3025 RMK AO2
Loading
Personal Weather Stations






























Interactive Weather Map New forecast layout! Learn more

10-Day Weather Forecast

Advertisements
Track Severe Weather on mobile